DW5657 Weather Reports


Display with metric or nautical units.
time (UTC)temp
F
wind
direction
speed
MPH
gust
MPH
rain 1hr
in
rain 24hr
in
rain mn
in
humidity
%
barometer
mb
20181114193706 32 39 2.0 7.0 0.00 0.00 0.00 65 1031.3
20181114192705 32 67 3.0 5.0 0.00 0.00 0.00 65 1031.3
20181114191706 32 108 3.0 7.0 0.00 0.00 0.00 66 1031.8
20181114190705 32 96 3.0 7.0 0.00 0.00 0.00 66 1031.6
20181114185705 32 112 3.0 9.0 0.00 0.00 0.00 66 1031.9
20181114184705 32 187 2.0 5.0 0.00 0.00 0.00 67 1032.1
20181114183706 32 275 2.0 6.0 0.00 0.00 0.00 66 1032.5
20181114182706 32 236 2.0 5.0 0.00 0.00 0.00 67 1032.8
20181114181706 32 77 3.0 9.0 0.00 0.00 0.00 67 1032.6
20181114180706 31 229 3.0 7.0 0.00 0.00 0.00 67 1032.6
20181114175706 31 96 2.0 7.0 0.00 0.00 0.00 67 1032.6
20181114174705 31 224 3.0 6.0 0.00 0.00 0.00 67 1032.9
20181114173705 31 257 2.0 6.0 0.00 0.00 0.00 67 1033.5
20181114172706 31 170 1.0 5.0 0.00 0.00 0.00 68 1033.5
20181114171705 31 256 2.0 6.0 0.00 0.00 0.00 68 1033.8
20181114170705 31 119 1.0 6.0 0.00 0.00 0.00 69 1033.9
20181114165706 30 269 2.0 7.0 0.00 0.00 0.00 69 1033.7
20181114164705 30 331 1.0 6.0 0.00 0.00 0.00 70 1034.2
20181114163705 30 278 2.0 7.0 0.00 0.00 0.00 69 1034.4
20181114162706 29 241 2.0 8.0 0.00 0.00 0.00 69 1034.5
20181114161705 29 45 3.0 10.0 0.00 0.00 0.00 69 1034.4
20181114160706 29 223 4.0 9.0 0.00 0.00 0.00 70 1034.4
20181114155705 29 87 2.0 7.0 0.00 0.00 0.00 75 1034.5
20181114154706 29 246 5.0 10.0 0.00 0.00 0.00 72 1034.2
20181114153705 29 271 2.0 6.0 0.00 0.00 0.00 72 1034.4
20181114152705 28 97 1.0 6.0 0.00 0.00 0.00 73 1034.4
20181114151705 28 243 3.0 7.0 0.00 0.00 0.00 73 1034.4
20181114150706 28 244 3.0 6.0 0.00 0.00 0.00 74 1034.3
20181114145705 28 247 3.0 9.0 0.00 0.00 0.00 74 1034.3
20181114144706 27 253 0.0 6.0 0.00 0.00 0.00 75 1034.1
20181114143705 27 214 0.0 6.0 0.00 0.00 0.00 76 1034.0
20181114142705 27 202 1.0 6.0 0.00 0.00 0.00 77 1033.9
20181114141705 27 181 1.0 6.0 0.00 0.00 0.00 78 1033.7
20181114140705 27 219 1.0 3.0 0.00 0.00 0.00 79 1033.7
20181114135706 26 217 3.0 6.0 0.00 0.00 0.00 79 1033.6
20181114134706 26 248 2.0 3.0 0.00 0.00 0.00 80 1033.7
20181114133705 26 119 1.0 3.0 0.00 0.00 0.00 81 1033.6
20181114132705 25 89 1.0 3.0 0.00 0.00 0.00 81 1033.4
20181114131705 25 250 1.0 3.0 0.00 0.00 0.00 81 1033.2
20181114130706 25 230 1.0 3.0 0.00 0.00 0.00 82 1033.3
20181114125707 25 249 1.0 3.0 0.00 0.00 0.00 82 1032.9
20181114124705 24 110 1.0 3.0 0.00 0.00 0.00 83 1032.9
20181114123705 24 109 1.0 3.0 0.00 0.00 0.00 82 1032.9
20181114122705 24 109 0.0 1.0 0.00 0.00 0.00 82 1032.9
20181114121706 24 109 0.0 1.0 0.00 0.01 0.00 82 1032.8
20181114120705 24 109 0.0 1.0 0.00 0.01 0.00 82 1032.5
20181114115705 24 109 0.0 2.0 0.00 0.01 0.00 83 1032.5
20181114114705 24 109 0.0 1.0 0.00 0.01 0.00 83 1032.5
20181114113705 24 109 0.0 1.0 0.00 0.01 0.00 83 1032.4
20181114112705 24 109 0.0 2.0 0.00 0.01 0.00 83 1032.3
20181114111706 24 109 0.0 1.0 0.00 0.02 0.00 83 1032.3
20181114110706 24 109 0.0 1.0 0.00 0.02 0.00 83 1032.2
20181114105706 24 109 0.0 2.0 0.00 0.02 0.00 83 1032.3
20181114104705 24 109 0.0 2.0 0.00 0.02 0.00 83 1032.3
20181114103705 24 109 1.0 1.0 0.00 0.02 0.00 83 1032.3
20181114102706 24 109 0.0 0.0 0.00 0.02 0.00 83 1032.3
20181114101705 24 109 0.0 1.0 0.00 0.02 0.00 83 1032.1
20181114100705 24 109 0.0 1.0 0.00 0.02 0.00 83 1032.1
20181114095705 24 109 0.0 0.0 0.00 0.02 0.00 83 1031.9
20181114094705 24 109 0.0 0.0 0.00 0.02 0.00 83 1031.8
20181114093706 24 109 0.0 1.0 0.00 0.02 0.00 83 1031.7
20181114092705 25 109 1.0 1.0 0.00 0.02 0.00 83 1031.5
20181114091706 25 109 0.0 2.0 0.00 0.02 0.00 84 1031.6
20181114090705 25 109 0.0 0.0 0.00 0.02 0.00 84 1031.4
20181114085706 25 109 1.0 3.0 0.00 0.02 0.00 84 1031.3
20181114084705 25 109 0.0 3.0 0.00 0.02 0.00 84 1031.4
20181114083705 25 98 0.0 3.0 0.00 0.02 0.00 84 1031.4
20181114082706 25 100 1.0 3.0 0.00 0.02 0.00 84 1031.4
20181114081706 25 100 1.0 3.0 0.00 0.02 0.00 85 1031.3
20181114080706 26 92 0.0 3.0 0.00 0.02 0.00 85 1031.2
20181114075706 26 92 1.0 2.0 0.00 0.02 0.00 84 1031.2
20181114074705 26 92 1.0 3.0 0.00 0.02 0.00 84 1031.1
20181114073705 26 107 0.0 3.0 0.00 0.02 0.00 84 1031.0
20181114072705 26 107 1.0 3.0 0.00 0.02 0.00 84 1031.0
20181114071706 26 119 1.0 3.0 0.00 0.02 0.00 84 1031.2
20181114070705 26 119 1.0 3.0 0.00 0.02 0.00 84 1031.2
20181114065706 27 170 1.0 3.0 0.00 0.02 0.00 83 1031.1
20181114064705 27 119 1.0 2.0 0.00 0.02 0.00 83 1031.2
20181114063705 27 134 0.0 2.0 0.00 0.02 0.00 83 1031.3
20181114062705 27 129 0.0 3.0 0.00 0.02 0.00 83 1031.3
20181114061705 27 88 1.0 3.0 0.00 0.02 0.00 83 1031.0
20181114060705 27 97 1.0 5.0 0.00 0.02 0.00 82 1031.0
20181114055705 27 119 1.0 3.0 0.00 0.02 0.00 82 1031.0
20181114054705 28 110 1.0 3.0 0.00 0.02 0.00 82 1031.2
20181114053706 28 146 1.0 5.0 0.00 0.02 0.00 82 1030.6
20181114052706 28 113 2.0 3.0 0.00 0.02 0.00 81 1030.8
20181114051705 28 97 1.0 5.0 0.00 0.03 0.00 81 1030.5
20181114050705 28 106 2.0 6.0 0.00 0.03 0.00 81 1030.5
20181114045705 28 106 1.0 3.0 0.00 0.03 0.03 81 1030.8
20181114044705 29 67 2.0 5.0 0.00 0.03 0.03 80 1030.3
20181114043706 29 93 1.0 7.0 0.00 0.03 0.03 80 1030.4
20181114042705 29 109 1.0 3.0 0.00 0.03 0.03 80 1030.5
20181114041705 29 35 3.0 6.0 0.00 0.03 0.03 80 1030.6
20181114040705 29 125 2.0 3.0 0.00 0.03 0.03 79 1030.1
20181114035705 30 92 2.0 3.0 0.00 0.03 0.03 79 1030.2
20181114034705 30 59 1.0 3.0 0.00 0.03 0.03 79 1030.6
20181114033705 30 105 0.0 3.0 0.00 0.03 0.03 79 1030.2
20181114032705 30 107 1.0 3.0 0.00 0.03 0.03 79 1030.1
20181114031705 30 106 1.0 5.0 0.00 0.03 0.03 78 1030.0
20181114030705 30 119 2.0 7.0 0.00 0.03 0.03 78 1029.9
20181114025705 31 22 2.0 3.0 0.00 0.03 0.03 78 1030.0
20181114024705 31 134 2.0 9.0 0.00 0.04 0.03 78 1029.7
20181114023705 31 112 1.0 6.0 0.00 0.04 0.03 78 1029.8
20181114022705 31 108 1.0 6.0 0.00 0.04 0.03 78 1029.8
20181114021705 31 110 2.0 3.0 0.00 0.04 0.03 78 1029.5
20181114020705 31 118 2.0 5.0 0.00 0.04 0.03 77 1029.3
20181114015705 31 120 1.0 6.0 0.00 0.04 0.03 77 1029.3
20181114014705 31 115 1.0 3.0 0.00 0.04 0.03 77 1029.1
20181114013705 32 95 0.0 3.0 0.00 0.04 0.03 77 1029.2
20181114012705 32 90 2.0 3.0 0.00 0.04 0.03 76 1029.0
20181114011705 32 98 1.0 3.0 0.00 0.04 0.03 76 1029.1
20181114010705 32 108 1.0 3.0 0.00 0.04 0.03 76 1029.2
20181114005705 32 97 2.0 5.0 0.00 0.04 0.03 76 1029.0
20181114004705 32 139 1.0 5.0 0.00 0.04 0.03 75 1028.9
20181114003705 32 115 2.0 5.0 0.00 0.04 0.03 75 1028.8
20181114002706 33 126 2.0 6.0 0.00 0.04 0.03 75 1028.5
20181114001706 33 108 2.0 7.0 0.00 0.04 0.03 75 1028.3
20181114000706 33 139 1.0 5.0 0.00 0.04 0.03 74 1028.0
20181113235706 33 113 1.0 9.0 0.00 0.04 0.03 74 1027.9
20181113234705 34 149 3.0 7.0 0.00 0.04 0.03 73 1027.8
20181113233705 34 119 3.0 7.0 0.00 0.04 0.03 72 1027.7
20181113232705 34 98 2.0 6.0 0.00 0.04 0.03 72 1027.3
20181113231705 35 76 2.0 6.0 0.00 0.04 0.03 73 1027.4
20181113230705 35 109 2.0 9.0 0.00 0.04 0.03 72 1027.3
20181113225705 35 110 1.0 5.0 0.00 0.04 0.03 72 1027.1
20181113224706 36 52 3.0 7.0 0.00 0.04 0.03 71 1027.1
20181113223705 36 77 1.0 7.0 0.00 0.04 0.03 71 1027.0
20181113222706 36 120 2.0 5.0 0.00 0.04 0.03 71 1026.6
20181113221705 36 114 2.0 5.0 0.00 0.04 0.03 71 1026.5
20181113220706 36 112 2.0 7.0 0.00 0.04 0.03 71 1026.6
20181113215706 37 102 2.0 6.0 0.00 0.04 0.03 71 1026.5
20181113214705 37 113 2.0 9.0 0.00 0.04 0.03 71 1026.3
20181113213705 37 105 3.0 7.0 0.00 0.04 0.03 70 1026.1
20181113212705 38 108 2.0 7.0 0.00 0.04 0.03 69 1026.1
20181113211705 38 99 3.0 6.0 0.00 0.04 0.03 68 1026.0
20181113210705 38 108 3.0 8.0 0.00 0.04 0.03 67 1026.0
20181113205706 38 117 2.0 7.0 0.00 0.04 0.03 67 1025.8
20181113204705 38 106 5.0 12.0 0.00 0.04 0.03 68 1025.7
20181113203705 38 20 3.0 9.0 0.00 0.04 0.03 69 1025.6
20181113202705 38 128 2.0 8.0 0.00 0.04 0.03 69 1025.6
20181113201704 38 126 3.0 6.0 0.00 0.04 0.03 70 1025.3
20181113200705 38 118 1.0 5.0 0.00 0.04 0.03 71 1025.2
20181113195705 38 109 1.0 8.0 0.00 0.04 0.03 71 1025.1
20181113194705 38 106 2.0 5.0 0.00 0.04 0.03 71 1025.1